sensor_id;sensor_type;location;lat;lon;timestamp;P1;durP1;ratioP1;P2;durP2;ratioP2
47167;SDS011;32931;47.778;17.806;2023-01-16T00:01:24;28.02;;;19.23;;
47167;SDS011;32931;47.778;17.806;2023-01-16T00:03:52;23.38;;;15.60;;
47167;SDS011;32931;47.778;17.806;2023-01-16T00:06:18;21.08;;;14.60;;
47167;SDS011;32931;47.778;17.806;2023-01-16T00:08:44;23.27;;;13.82;;
47167;SDS011;32931;47.778;17.806;2023-01-16T00:11:11;19.17;;;12.95;;
47167;SDS011;32931;47.778;17.806;2023-01-16T00:13:38;26.17;;;13.77;;
47167;SDS011;32931;47.778;17.806;2023-01-16T00:16:05;19.55;;;12.02;;
47167;SDS011;32931;47.778;17.806;2023-01-16T00:18:32;14.88;;;10.93;;
47167;SDS011;32931;47.778;17.806;2023-01-16T00:20:58;15.10;;;10.88;;
47167;SDS011;32931;47.778;17.806;2023-01-16T00:23:25;15.43;;;10.63;;
47167;SDS011;32931;47.778;17.806;2023-01-16T00:25:51;17.00;;;10.95;;
47167;SDS011;32931;47.778;17.806;2023-01-16T00:28:17;16.08;;;10.38;;
47167;SDS011;32931;47.778;17.806;2023-01-16T00:30:44;14.55;;;9.82;;
47167;SDS011;32931;47.778;17.806;2023-01-16T00:33:10;18.00;;;10.48;;
47167;SDS011;32931;47.778;17.806;2023-01-16T00:35:36;12.85;;;9.52;;
47167;SDS011;32931;47.778;17.806;2023-01-16T00:38:03;12.88;;;8.35;;
47167;SDS011;32931;47.778;17.806;2023-01-16T00:40:29;12.25;;;7.82;;
47167;SDS011;32931;47.778;17.806;2023-01-16T00:42:55;12.18;;;7.90;;
47167;SDS011;32931;47.778;17.806;2023-01-16T00:45:21;12.50;;;8.25;;
47167;SDS011;32931;47.778;17.806;2023-01-16T00:47:47;12.32;;;8.05;;
47167;SDS011;32931;47.778;17.806;2023-01-16T00:50:14;10.40;;;7.82;;
47167;SDS011;32931;47.778;17.806;2023-01-16T00:52:40;10.75;;;7.68;;
47167;SDS011;32931;47.778;17.806;2023-01-16T00:55:06;9.98;;;7.05;;
47167;SDS011;32931;47.778;17.806;2023-01-16T00:57:33;10.77;;;6.88;;
47167;SDS011;32931;47.778;17.806;2023-01-16T00:59:59;9.18;;;6.32;;
47167;SDS011;32931;47.778;17.806;2023-01-16T01:02:25;7.90;;;6.13;;
47167;SDS011;32931;47.778;17.806;2023-01-16T01:04:51;8.70;;;6.13;;
47167;SDS011;32931;47.778;17.806;2023-01-16T01:07:17;13.05;;;6.45;;
47167;SDS011;32931;47.778;17.806;2023-01-16T01:09:43;7.70;;;5.72;;
47167;SDS011;32931;47.778;17.806;2023-01-16T01:12:10;7.97;;;5.80;;
47167;SDS011;32931;47.778;17.806;2023-01-16T01:14:36;9.15;;;5.55;;
47167;SDS011;32931;47.778;17.806;2023-01-16T01:17:02;9.90;;;5.20;;
47167;SDS011;32931;47.778;17.806;2023-01-16T01:19:28;8.02;;;5.03;;
47167;SDS011;32931;47.778;17.806;2023-01-16T01:21:54;7.55;;;5.50;;
47167;SDS011;32931;47.778;17.806;2023-01-16T01:24:21;7.93;;;5.10;;
47167;SDS011;32931;47.778;17.806;2023-01-16T01:26:47;9.48;;;5.90;;
47167;SDS011;32931;47.778;17.806;2023-01-16T01:29:13;9.02;;;5.45;;
47167;SDS011;32931;47.778;17.806;2023-01-16T01:31:39;8.38;;;4.68;;
47167;SDS011;32931;47.778;17.806;2023-01-16T01:34:05;9.05;;;5.32;;
47167;SDS011;32931;47.778;17.806;2023-01-16T01:36:31;8.85;;;5.57;;
47167;SDS011;32931;47.778;17.806;2023-01-16T01:38:58;8.05;;;5.47;;
47167;SDS011;32931;47.778;17.806;2023-01-16T01:41:24;8.30;;;5.95;;
47167;SDS011;32931;47.778;17.806;2023-01-16T01:43:51;8.95;;;5.70;;
47167;SDS011;32931;47.778;17.806;2023-01-16T01:48:49;7.40;;;5.40;;
47167;SDS011;32931;47.778;17.806;2023-01-16T01:51:25;8.95;;;6.40;;
47167;SDS011;32931;47.778;17.806;2023-01-16T01:54:02;10.23;;;6.75;;
47167;SDS011;32931;47.778;17.806;2023-01-16T01:56:39;11.43;;;7.75;;
47167;SDS011;32931;47.778;17.806;2023-01-16T01:59:16;13.43;;;7.57;;
47167;SDS011;32931;47.778;17.806;2023-01-16T02:01:48;13.88;;;8.48;;
47167;SDS011;32931;47.778;17.806;2023-01-16T02:04:16;12.23;;;8.85;;
47167;SDS011;32931;47.778;17.806;2023-01-16T02:06:47;12.27;;;7.97;;
47167;SDS011;32931;47.778;17.806;2023-01-16T02:09:18;11.75;;;7.90;;
47167;SDS011;32931;47.778;17.806;2023-01-16T02:11:49;11.85;;;7.75;;
47167;SDS011;32931;47.778;17.806;2023-01-16T02:14:20;12.27;;;7.32;;
47167;SDS011;32931;47.778;17.806;2023-01-16T02:16:50;9.60;;;6.53;;
47167;SDS011;32931;47.778;17.806;2023-01-16T02:31:24;10.80;;;7.43;;
47167;SDS011;32931;47.778;17.806;2023-01-16T02:41:47;9.63;;;6.32;;
47167;SDS011;32931;47.778;17.806;2023-01-16T02:49:57;11.07;;;6.47;;
47167;SDS011;32931;47.778;17.806;2023-01-16T02:53:00;8.30;;;6.50;;
47167;SDS011;32931;47.778;17.806;2023-01-16T02:55:39;7.55;;;5.95;;
47167;SDS011;32931;47.778;17.806;2023-01-16T02:58:12;8.32;;;6.13;;
47167;SDS011;32931;47.778;17.806;2023-01-16T03:00:49;7.00;;;5.82;;
47167;SDS011;32931;47.778;17.806;2023-01-16T03:08:58;9.63;;;6.00;;
47167;SDS011;32931;47.778;17.806;2023-01-16T03:11:51;10.32;;;6.25;;
47167;SDS011;32931;47.778;17.806;2023-01-16T03:17:07;7.45;;;6.22;;
47167;SDS011;32931;47.778;17.806;2023-01-16T03:23:22;8.30;;;6.10;;
47167;SDS011;32931;47.778;17.806;2023-01-16T03:25:43;9.05;;;5.90;;
47167;SDS011;32931;47.778;17.806;2023-01-16T03:28:40;7.93;;;5.70;;
47167;SDS011;32931;47.778;17.806;2023-01-16T03:31:10;6.43;;;5.05;;
47167;SDS011;32931;47.778;17.806;2023-01-16T03:34:18;7.70;;;5.28;;
47167;SDS011;32931;47.778;17.806;2023-01-16T03:37:05;8.30;;;5.68;;
47167;SDS011;32931;47.778;17.806;2023-01-16T03:39:40;7.35;;;5.95;;
47167;SDS011;32931;47.778;17.806;2023-01-16T03:42:12;12.52;;;6.50;;
47167;SDS011;32931;47.778;17.806;2023-01-16T03:44:44;9.57;;;6.53;;
47167;SDS011;32931;47.778;17.806;2023-01-16T03:47:18;10.85;;;5.97;;
47167;SDS011;32931;47.778;17.806;2023-01-16T03:49:57;11.02;;;6.35;;
47167;SDS011;32931;47.778;17.806;2023-01-16T03:52:31;8.90;;;6.80;;
47167;SDS011;32931;47.778;17.806;2023-01-16T03:57:40;22.50;;;12.18;;
47167;SDS011;32931;47.778;17.806;2023-01-16T04:00:17;29.27;;;16.90;;
47167;SDS011;32931;47.778;17.806;2023-01-16T04:03:27;16.25;;;9.82;;
47167;SDS011;32931;47.778;17.806;2023-01-16T04:08:15;16.63;;;10.38;;
47167;SDS011;32931;47.778;17.806;2023-01-16T04:10:45;8.95;;;6.55;;
47167;SDS011;32931;47.778;17.806;2023-01-16T04:13:15;8.55;;;6.40;;
47167;SDS011;32931;47.778;17.806;2023-01-16T04:15:46;7.15;;;5.78;;
47167;SDS011;32931;47.778;17.806;2023-01-16T04:18:14;14.10;;;6.38;;
47167;SDS011;32931;47.778;17.806;2023-01-16T04:20:41;8.38;;;5.95;;
47167;SDS011;32931;47.778;17.806;2023-01-16T04:23:11;9.10;;;6.88;;
47167;SDS011;32931;47.778;17.806;2023-01-16T04:25:38;10.20;;;6.88;;
47167;SDS011;32931;47.778;17.806;2023-01-16T04:28:05;10.07;;;7.47;;
47167;SDS011;32931;47.778;17.806;2023-01-16T04:30:31;9.00;;;7.15;;
47167;SDS011;32931;47.778;17.806;2023-01-16T04:33:00;8.02;;;6.35;;
47167;SDS011;32931;47.778;17.806;2023-01-16T04:35:27;7.68;;;6.28;;
47167;SDS011;32931;47.778;17.806;2023-01-16T04:37:53;6.53;;;5.50;;
47167;SDS011;32931;47.778;17.806;2023-01-16T04:40:19;8.07;;;6.18;;
47167;SDS011;32931;47.778;17.806;2023-01-16T04:42:46;8.10;;;6.30;;
47167;SDS011;32931;47.778;17.806;2023-01-16T04:45:13;7.13;;;5.65;;
47167;SDS011;32931;47.778;17.806;2023-01-16T04:47:39;6.88;;;5.80;;
47167;SDS011;32931;47.778;17.806;2023-01-16T04:50:05;10.35;;;5.82;;
47167;SDS011;32931;47.778;17.806;2023-01-16T04:52:32;8.45;;;5.78;;
47167;SDS011;32931;47.778;17.806;2023-01-16T04:54:58;7.95;;;5.03;;
47167;SDS011;32931;47.778;17.806;2023-01-16T04:57:24;7.53;;;5.22;;
47167;SDS011;32931;47.778;17.806;2023-01-16T04:59:51;7.43;;;5.93;;
47167;SDS011;32931;47.778;17.806;2023-01-16T05:02:17;10.07;;;6.28;;
47167;SDS011;32931;47.778;17.806;2023-01-16T05:04:43;10.40;;;6.65;;
47167;SDS011;32931;47.778;17.806;2023-01-16T05:07:09;9.38;;;5.30;;
47167;SDS011;32931;47.778;17.806;2023-01-16T05:09:35;8.25;;;5.80;;
47167;SDS011;32931;47.778;17.806;2023-01-16T05:12:01;7.78;;;5.63;;
47167;SDS011;32931;47.778;17.806;2023-01-16T05:14:27;12.57;;;5.40;;
47167;SDS011;32931;47.778;17.806;2023-01-16T05:16:54;7.95;;;5.80;;
47167;SDS011;32931;47.778;17.806;2023-01-16T05:19:20;7.50;;;5.95;;
47167;SDS011;32931;47.778;17.806;2023-01-16T05:21:46;8.30;;;5.57;;
47167;SDS011;32931;47.778;17.806;2023-01-16T05:24:12;6.53;;;5.05;;
47167;SDS011;32931;47.778;17.806;2023-01-16T05:26:38;7.95;;;5.30;;
47167;SDS011;32931;47.778;17.806;2023-01-16T05:29:04;10.88;;;5.25;;
47167;SDS011;32931;47.778;17.806;2023-01-16T05:31:31;6.47;;;5.22;;
47167;SDS011;32931;47.778;17.806;2023-01-16T05:33:57;6.85;;;5.25;;
47167;SDS011;32931;47.778;17.806;2023-01-16T05:36:23;6.20;;;5.10;;
47167;SDS011;32931;47.778;17.806;2023-01-16T05:38:49;7.00;;;5.68;;
47167;SDS011;32931;47.778;17.806;2023-01-16T05:41:16;7.43;;;5.45;;
47167;SDS011;32931;47.778;17.806;2023-01-16T05:43:42;7.10;;;5.82;;
47167;SDS011;32931;47.778;17.806;2023-01-16T05:46:09;8.00;;;6.05;;
47167;SDS011;32931;47.778;17.806;2023-01-16T05:48:35;8.35;;;6.38;;
47167;SDS011;32931;47.778;17.806;2023-01-16T05:51:05;7.90;;;6.22;;
47167;SDS011;32931;47.778;17.806;2023-01-16T05:53:31;8.63;;;6.70;;
47167;SDS011;32931;47.778;17.806;2023-01-16T05:55:58;9.45;;;6.68;;
47167;SDS011;32931;47.778;17.806;2023-01-16T05:58:24;9.32;;;6.28;;
47167;SDS011;32931;47.778;17.806;2023-01-16T06:00:50;11.20;;;6.78;;
47167;SDS011;32931;47.778;17.806;2023-01-16T06:03:17;8.07;;;6.35;;
47167;SDS011;32931;47.778;17.806;2023-01-16T06:05:43;11.10;;;7.57;;
47167;SDS011;32931;47.778;17.806;2023-01-16T06:08:09;10.73;;;6.25;;
47167;SDS011;32931;47.778;17.806;2023-01-16T06:10:35;7.68;;;6.40;;
47167;SDS011;32931;47.778;17.806;2023-01-16T06:13:02;7.90;;;6.40;;
47167;SDS011;32931;47.778;17.806;2023-01-16T06:15:28;9.02;;;6.18;;
47167;SDS011;32931;47.778;17.806;2023-01-16T06:17:55;10.95;;;6.63;;
47167;SDS011;32931;47.778;17.806;2023-01-16T06:20:21;9.52;;;6.93;;
47167;SDS011;32931;47.778;17.806;2023-01-16T06:22:47;8.88;;;7.53;;
47167;SDS011;32931;47.778;17.806;2023-01-16T06:25:14;11.52;;;7.13;;
47167;SDS011;32931;47.778;17.806;2023-01-16T06:27:40;10.55;;;7.28;;
47167;SDS011;32931;47.778;17.806;2023-01-16T06:30:06;9.07;;;7.13;;
47167;SDS011;32931;47.778;17.806;2023-01-16T06:32:33;8.00;;;6.07;;
47167;SDS011;32931;47.778;17.806;2023-01-16T06:34:59;9.10;;;6.95;;
47167;SDS011;32931;47.778;17.806;2023-01-16T06:37:25;12.68;;;6.75;;
47167;SDS011;32931;47.778;17.806;2023-01-16T06:39:51;8.75;;;6.55;;
47167;SDS011;32931;47.778;17.806;2023-01-16T06:42:18;8.50;;;6.57;;
47167;SDS011;32931;47.778;17.806;2023-01-16T06:44:45;8.10;;;6.88;;
47167;SDS011;32931;47.778;17.806;2023-01-16T06:47:11;9.73;;;7.45;;
47167;SDS011;32931;47.778;17.806;2023-01-16T06:49:37;8.27;;;6.57;;
47167;SDS011;32931;47.778;17.806;2023-01-16T06:52:04;9.88;;;7.07;;
47167;SDS011;32931;47.778;17.806;2023-01-16T06:54:30;8.10;;;6.38;;
47167;SDS011;32931;47.778;17.806;2023-01-16T06:56:56;9.93;;;8.05;;
47167;SDS011;32931;47.778;17.806;2023-01-16T06:59:22;8.80;;;7.32;;
47167;SDS011;32931;47.778;17.806;2023-01-16T07:01:48;10.02;;;7.18;;
47167;SDS011;32931;47.778;17.806;2023-01-16T07:04:15;14.60;;;7.80;;
47167;SDS011;32931;47.778;17.806;2023-01-16T07:06:41;10.15;;;7.60;;
47167;SDS011;32931;47.778;17.806;2023-01-16T07:09:09;16.70;;;9.77;;
47167;SDS011;32931;47.778;17.806;2023-01-16T07:11:36;13.18;;;8.32;;
47167;SDS011;32931;47.778;17.806;2023-01-16T07:14:02;16.13;;;6.65;;
47167;SDS011;32931;47.778;17.806;2023-01-16T07:16:46;8.27;;;7.00;;
47167;SDS011;32931;47.778;17.806;2023-01-16T07:19:31;10.63;;;7.35;;
47167;SDS011;32931;47.778;17.806;2023-01-16T07:22:15;10.18;;;7.32;;
47167;SDS011;32931;47.778;17.806;2023-01-16T07:25:02;8.20;;;6.55;;
47167;SDS011;32931;47.778;17.806;2023-01-16T07:27:37;6.95;;;5.88;;
47167;SDS011;32931;47.778;17.806;2023-01-16T07:30:04;7.40;;;4.13;;
47167;SDS011;32931;47.778;17.806;2023-01-16T07:32:31;4.38;;;2.92;;
47167;SDS011;32931;47.778;17.806;2023-01-16T07:34:57;4.72;;;3.70;;
47167;SDS011;32931;47.778;17.806;2023-01-16T07:37:23;5.15;;;3.55;;
47167;SDS011;32931;47.778;17.806;2023-01-16T07:39:50;5.50;;;3.60;;
47167;SDS011;32931;47.778;17.806;2023-01-16T07:42:16;5.38;;;3.67;;
47167;SDS011;32931;47.778;17.806;2023-01-16T07:44:42;4.68;;;3.63;;
47167;SDS011;32931;47.778;17.806;2023-01-16T07:47:08;9.77;;;4.25;;
47167;SDS011;32931;47.778;17.806;2023-01-16T07:49:36;10.00;;;4.35;;
47167;SDS011;32931;47.778;17.806;2023-01-16T07:52:02;6.75;;;4.45;;
47167;SDS011;32931;47.778;17.806;2023-01-16T07:54:28;7.45;;;6.00;;
47167;SDS011;32931;47.778;17.806;2023-01-16T07:56:54;7.95;;;5.38;;
47167;SDS011;32931;47.778;17.806;2023-01-16T07:59:20;8.25;;;4.95;;
47167;SDS011;32931;47.778;17.806;2023-01-16T08:01:46;6.35;;;5.15;;
47167;SDS011;32931;47.778;17.806;2023-01-16T08:04:13;6.70;;;5.35;;
47167;SDS011;32931;47.778;17.806;2023-01-16T08:06:39;6.82;;;5.32;;
47167;SDS011;32931;47.778;17.806;2023-01-16T08:09:10;10.82;;;5.70;;
47167;SDS011;32931;47.778;17.806;2023-01-16T08:11:36;7.72;;;5.72;;
47167;SDS011;32931;47.778;17.806;2023-01-16T08:14:04;7.20;;;5.32;;
47167;SDS011;32931;47.778;17.806;2023-01-16T08:16:32;5.82;;;5.20;;
47167;SDS011;32931;47.778;17.806;2023-01-16T08:18:58;6.97;;;5.40;;
47167;SDS011;32931;47.778;17.806;2023-01-16T08:21:25;7.93;;;5.60;;
47167;SDS011;32931;47.778;17.806;2023-01-16T08:23:52;8.07;;;5.53;;
47167;SDS011;32931;47.778;17.806;2023-01-16T08:26:18;7.38;;;5.60;;
47167;SDS011;32931;47.778;17.806;2023-01-16T08:28:44;6.72;;;4.85;;
47167;SDS011;32931;47.778;17.806;2023-01-16T08:31:11;7.72;;;5.22;;
47167;SDS011;32931;47.778;17.806;2023-01-16T08:33:39;9.73;;;4.93;;
47167;SDS011;32931;47.778;17.806;2023-01-16T08:36:08;8.18;;;4.38;;
47167;SDS011;32931;47.778;17.806;2023-01-16T08:38:36;7.28;;;4.70;;
47167;SDS011;32931;47.778;17.806;2023-01-16T08:41:02;6.32;;;4.20;;
47167;SDS011;32931;47.778;17.806;2023-01-16T08:43:29;7.07;;;4.22;;
47167;SDS011;32931;47.778;17.806;2023-01-16T08:46:18;6.88;;;4.55;;
47167;SDS011;32931;47.778;17.806;2023-01-16T08:49:07;7.82;;;4.60;;
47167;SDS011;32931;47.778;17.806;2023-01-16T08:51:56;6.50;;;4.20;;
47167;SDS011;32931;47.778;17.806;2023-01-16T08:54:23;8.35;;;4.40;;
47167;SDS011;32931;47.778;17.806;2023-01-16T08:56:49;8.80;;;4.40;;
47167;SDS011;32931;47.778;17.806;2023-01-16T08:59:15;7.60;;;4.60;;
47167;SDS011;32931;47.778;17.806;2023-01-16T09:01:42;6.45;;;4.70;;
47167;SDS011;32931;47.778;17.806;2023-01-16T09:04:08;7.07;;;5.38;;
47167;SDS011;32931;47.778;17.806;2023-01-16T09:06:34;11.57;;;7.03;;
47167;SDS011;32931;47.778;17.806;2023-01-16T09:09:04;10.45;;;7.35;;
47167;SDS011;32931;47.778;17.806;2023-01-16T09:11:31;12.75;;;7.68;;
47167;SDS011;32931;47.778;17.806;2023-01-16T09:14:17;10.57;;;6.60;;
47167;SDS011;32931;47.778;17.806;2023-01-16T09:16:43;7.13;;;5.25;;
47167;SDS011;32931;47.778;17.806;2023-01-16T09:19:10;8.38;;;5.18;;
47167;SDS011;32931;47.778;17.806;2023-01-16T09:21:36;6.97;;;5.78;;
47167;SDS011;32931;47.778;17.806;2023-01-16T09:24:02;8.40;;;5.53;;
47167;SDS011;32931;47.778;17.806;2023-01-16T09:26:29;8.02;;;6.32;;
47167;SDS011;32931;47.778;17.806;2023-01-16T09:28:56;12.55;;;6.40;;
47167;SDS011;32931;47.778;17.806;2023-01-16T09:31:22;7.97;;;5.43;;
47167;SDS011;32931;47.778;17.806;2023-01-16T09:33:48;7.85;;;5.80;;
47167;SDS011;32931;47.778;17.806;2023-01-16T09:36:16;5.85;;;4.88;;
47167;SDS011;32931;47.778;17.806;2023-01-16T09:38:42;7.50;;;5.57;;
47167;SDS011;32931;47.778;17.806;2023-01-16T09:41:11;7.43;;;5.95;;
47167;SDS011;32931;47.778;17.806;2023-01-16T09:44:03;7.85;;;5.80;;
47167;SDS011;32931;47.778;17.806;2023-01-16T09:46:37;7.38;;;5.28;;
47167;SDS011;32931;47.778;17.806;2023-01-16T09:51:48;7.78;;;6.10;;
47167;SDS011;32931;47.778;17.806;2023-01-16T09:54:39;10.63;;;6.25;;
47167;SDS011;32931;47.778;17.806;2023-01-16T09:57:28;10.85;;;6.55;;
47167;SDS011;32931;47.778;17.806;2023-01-16T10:00:16;11.10;;;6.65;;
47167;SDS011;32931;47.778;17.806;2023-01-16T10:02:45;7.10;;;5.43;;
47167;SDS011;32931;47.778;17.806;2023-01-16T10:05:11;8.65;;;5.68;;
47167;SDS011;32931;47.778;17.806;2023-01-16T10:07:47;9.32;;;5.57;;
47167;SDS011;32931;47.778;17.806;2023-01-16T10:10:19;7.18;;;4.82;;
47167;SDS011;32931;47.778;17.806;2023-01-16T10:15:56;9.45;;;5.75;;
47167;SDS011;32931;47.778;17.806;2023-01-16T10:18:30;7.38;;;5.95;;
47167;SDS011;32931;47.778;17.806;2023-01-16T10:26:30;9.77;;;6.10;;
47167;SDS011;32931;47.778;17.806;2023-01-16T10:34:55;10.07;;;7.50;;
47167;SDS011;32931;47.778;17.806;2023-01-16T10:37:33;15.23;;;10.02;;
47167;SDS011;32931;47.778;17.806;2023-01-16T10:40:07;17.88;;;12.02;;
47167;SDS011;32931;47.778;17.806;2023-01-16T10:42:39;17.55;;;12.95;;
47167;SDS011;32931;47.778;17.806;2023-01-16T10:45:28;19.27;;;14.35;;
47167;SDS011;32931;47.778;17.806;2023-01-16T10:48:17;19.20;;;14.95;;
47167;SDS011;32931;47.778;17.806;2023-01-16T10:51:02;21.98;;;16.50;;
47167;SDS011;32931;47.778;17.806;2023-01-16T10:53:29;25.83;;;16.58;;
47167;SDS011;32931;47.778;17.806;2023-01-16T10:55:57;24.05;;;17.23;;
47167;SDS011;32931;47.778;17.806;2023-01-16T10:58:31;27.13;;;18.15;;
47167;SDS011;32931;47.778;17.806;2023-01-16T11:08:32;31.60;;;20.75;;
47167;SDS011;32931;47.778;17.806;2023-01-16T11:10:59;30.08;;;20.00;;
47167;SDS011;32931;47.778;17.806;2023-01-16T11:13:27;30.80;;;21.00;;
47167;SDS011;32931;47.778;17.806;2023-01-16T11:18:57;33.40;;;21.00;;
47167;SDS011;32931;47.778;17.806;2023-01-16T11:21:26;36.35;;;22.88;;
47167;SDS011;32931;47.778;17.806;2023-01-16T11:23:58;36.92;;;23.52;;
47167;SDS011;32931;47.778;17.806;2023-01-16T11:26:48;37.13;;;22.75;;
47167;SDS011;32931;47.778;17.806;2023-01-16T11:29:19;38.97;;;22.95;;
47167;SDS011;32931;47.778;17.806;2023-01-16T11:31:50;40.00;;;24.23;;
47167;SDS011;32931;47.778;17.806;2023-01-16T11:34:24;38.90;;;24.35;;
47167;SDS011;32931;47.778;17.806;2023-01-16T11:37:00;43.58;;;25.20;;
47167;SDS011;32931;47.778;17.806;2023-01-16T11:39:29;45.30;;;25.38;;
47167;SDS011;32931;47.778;17.806;2023-01-16T11:41:58;42.33;;;25.83;;
47167;SDS011;32931;47.778;17.806;2023-01-16T11:44:47;46.10;;;26.40;;
47167;SDS011;32931;47.778;17.806;2023-01-16T11:47:32;46.78;;;26.92;;
47167;SDS011;32931;47.778;17.806;2023-01-16T11:53:05;53.28;;;27.63;;
47167;SDS011;32931;47.778;17.806;2023-01-16T11:55:36;47.03;;;26.95;;
47167;SDS011;32931;47.778;17.806;2023-01-16T11:58:10;43.88;;;27.02;;
47167;SDS011;32931;47.778;17.806;2023-01-16T12:20:04;46.65;;;27.92;;
47167;SDS011;32931;47.778;17.806;2023-01-16T12:25:27;46.53;;;27.33;;
47167;SDS011;32931;47.778;17.806;2023-01-16T12:39:15;47.95;;;28.40;;
47167;SDS011;32931;47.778;17.806;2023-01-16T12:41:48;44.28;;;27.67;;
47167;SDS011;32931;47.778;17.806;2023-01-16T12:47:32;47.83;;;28.60;;
47167;SDS011;32931;47.778;17.806;2023-01-16T12:53:36;50.50;;;27.77;;
47167;SDS011;32931;47.778;17.806;2023-01-16T12:58:55;47.33;;;27.95;;
47167;SDS011;32931;47.778;17.806;2023-01-16T13:01:30;48.47;;;27.95;;
47167;SDS011;32931;47.778;17.806;2023-01-16T13:04:06;48.38;;;29.30;;
47167;SDS011;32931;47.778;17.806;2023-01-16T13:06:52;50.35;;;29.05;;
47167;SDS011;32931;47.778;17.806;2023-01-16T13:09:33;48.17;;;28.30;;
47167;SDS011;32931;47.778;17.806;2023-01-16T13:15:09;50.25;;;29.10;;
47167;SDS011;32931;47.778;17.806;2023-01-16T13:17:46;47.83;;;29.02;;
47167;SDS011;32931;47.778;17.806;2023-01-16T13:20:29;43.80;;;28.50;;
47167;SDS011;32931;47.778;17.806;2023-01-16T13:22:57;44.40;;;28.00;;
47167;SDS011;32931;47.778;17.806;2023-01-16T13:25:32;42.90;;;27.67;;
47167;SDS011;32931;47.778;17.806;2023-01-16T13:30:40;46.45;;;29.13;;
47167;SDS011;32931;47.778;17.806;2023-01-16T13:33:10;46.17;;;28.95;;
47167;SDS011;32931;47.778;17.806;2023-01-16T13:36:28;50.30;;;29.25;;
47167;SDS011;32931;47.778;17.806;2023-01-16T13:46:34;47.53;;;29.05;;
47167;SDS011;32931;47.778;17.806;2023-01-16T13:49:02;46.13;;;29.70;;
47167;SDS011;32931;47.778;17.806;2023-01-16T13:51:31;49.70;;;29.50;;
47167;SDS011;32931;47.778;17.806;2023-01-16T13:54:08;44.55;;;29.38;;
47167;SDS011;32931;47.778;17.806;2023-01-16T13:56:40;44.30;;;28.83;;
47167;SDS011;32931;47.778;17.806;2023-01-16T13:59:08;47.60;;;28.92;;
47167;SDS011;32931;47.778;17.806;2023-01-16T14:01:57;40.03;;;27.23;;
47167;SDS011;32931;47.778;17.806;2023-01-16T14:06:50;48.28;;;32.05;;
47167;SDS011;32931;47.778;17.806;2023-01-16T14:09:58;40.40;;;26.30;;
47167;SDS011;32931;47.778;17.806;2023-01-16T14:12:32;39.85;;;25.55;;
47167;SDS011;32931;47.778;17.806;2023-01-16T14:16:01;41.72;;;26.52;;
47167;SDS011;32931;47.778;17.806;2023-01-16T14:21:23;41.40;;;25.92;;
47167;SDS011;32931;47.778;17.806;2023-01-16T14:23:54;42.35;;;26.63;;
47167;SDS011;32931;47.778;17.806;2023-01-16T14:26:42;42.97;;;26.45;;
47167;SDS011;32931;47.778;17.806;2023-01-16T14:31:50;42.95;;;26.95;;
47167;SDS011;32931;47.778;17.806;2023-01-16T14:34:32;46.42;;;27.95;;
47167;SDS011;32931;47.778;17.806;2023-01-16T14:37:06;43.85;;;27.95;;
47167;SDS011;32931;47.778;17.806;2023-01-16T14:39:47;42.58;;;26.95;;
47167;SDS011;32931;47.778;17.806;2023-01-16T14:42:16;48.83;;;28.88;;
47167;SDS011;32931;47.778;17.806;2023-01-16T14:45:18;49.90;;;29.30;;
47167;SDS011;32931;47.778;17.806;2023-01-16T14:50:54;49.42;;;30.02;;
47167;SDS011;32931;47.778;17.806;2023-01-16T14:53:45;47.25;;;28.90;;
47167;SDS011;32931;47.778;17.806;2023-01-16T14:56:33;49.35;;;30.60;;
47167;SDS011;32931;47.778;17.806;2023-01-16T14:59:04;53.97;;;30.77;;
47167;SDS011;32931;47.778;17.806;2023-01-16T15:01:33;48.05;;;30.05;;
47167;SDS011;32931;47.778;17.806;2023-01-16T15:04:29;51.72;;;30.20;;
47167;SDS011;32931;47.778;17.806;2023-01-16T15:07:05;53.47;;;32.00;;
47167;SDS011;32931;47.778;17.806;2023-01-16T15:09:32;52.22;;;31.42;;
47167;SDS011;32931;47.778;17.806;2023-01-16T15:12:10;51.70;;;30.50;;
47167;SDS011;32931;47.778;17.806;2023-01-16T15:14:38;52.45;;;30.45;;
47167;SDS011;32931;47.778;17.806;2023-01-16T15:17:26;52.58;;;31.13;;
47167;SDS011;32931;47.778;17.806;2023-01-16T15:20:28;55.13;;;31.38;;
47167;SDS011;32931;47.778;17.806;2023-01-16T15:31:43;51.53;;;31.45;;
47167;SDS011;32931;47.778;17.806;2023-01-16T15:34:21;54.20;;;32.63;;
47167;SDS011;32931;47.778;17.806;2023-01-16T15:36:50;55.95;;;33.35;;
47167;SDS011;32931;47.778;17.806;2023-01-16T15:41:45;51.35;;;33.15;;
47167;SDS011;32931;47.778;17.806;2023-01-16T15:44:32;52.72;;;31.80;;
47167;SDS011;32931;47.778;17.806;2023-01-16T15:52:12;54.53;;;34.85;;
47167;SDS011;32931;47.778;17.806;2023-01-16T15:54:39;57.42;;;34.95;;
47167;SDS011;32931;47.778;17.806;2023-01-16T15:57:12;58.60;;;35.08;;
47167;SDS011;32931;47.778;17.806;2023-01-16T15:59:49;56.08;;;34.90;;
47167;SDS011;32931;47.778;17.806;2023-01-16T16:02:23;57.53;;;35.85;;
47167;SDS011;32931;47.778;17.806;2023-01-16T16:04:59;56.00;;;36.10;;
47167;SDS011;32931;47.778;17.806;2023-01-16T16:07:27;55.05;;;34.33;;
47167;SDS011;32931;47.778;17.806;2023-01-16T16:09:54;57.80;;;37.05;;
47167;SDS011;32931;47.778;17.806;2023-01-16T16:12:24;59.20;;;36.42;;
47167;SDS011;32931;47.778;17.806;2023-01-16T16:15:15;58.83;;;37.53;;
47167;SDS011;32931;47.778;17.806;2023-01-16T16:18:13;59.88;;;36.35;;
47167;SDS011;32931;47.778;17.806;2023-01-16T16:20:41;63.55;;;37.45;;
47167;SDS011;32931;47.778;17.806;2023-01-16T16:28:24;56.33;;;35.70;;
47167;SDS011;32931;47.778;17.806;2023-01-16T16:33:41;60.88;;;37.53;;
47167;SDS011;32931;47.778;17.806;2023-01-16T16:36:17;61.33;;;37.00;;
47167;SDS011;32931;47.778;17.806;2023-01-16T16:38:50;64.38;;;41.90;;
47167;SDS011;32931;47.778;17.806;2023-01-16T16:44:24;57.92;;;37.33;;
47167;SDS011;32931;47.778;17.806;2023-01-16T16:46:57;56.45;;;35.88;;
47167;SDS011;32931;47.778;17.806;2023-01-16T16:51:50;57.65;;;37.85;;
47167;SDS011;32931;47.778;17.806;2023-01-16T16:54:16;61.42;;;39.53;;
47167;SDS011;32931;47.778;17.806;2023-01-16T16:56:53;59.30;;;38.08;;
47167;SDS011;32931;47.778;17.806;2023-01-16T16:59:22;61.25;;;39.80;;
47167;SDS011;32931;47.778;17.806;2023-01-16T17:01:53;58.20;;;38.28;;
47167;SDS011;32931;47.778;17.806;2023-01-16T17:04:21;58.33;;;37.47;;
47167;SDS011;32931;47.778;17.806;2023-01-16T17:06:48;62.13;;;40.22;;
47167;SDS011;32931;47.778;17.806;2023-01-16T17:09:17;58.53;;;38.75;;
47167;SDS011;32931;47.778;17.806;2023-01-16T17:11:44;63.05;;;39.08;;
47167;SDS011;32931;47.778;17.806;2023-01-16T17:14:11;56.83;;;36.58;;
47167;SDS011;32931;47.778;17.806;2023-01-16T17:16:37;58.95;;;37.72;;
47167;SDS011;32931;47.778;17.806;2023-01-16T17:21:44;58.85;;;37.40;;
47167;SDS011;32931;47.778;17.806;2023-01-16T17:24:13;109.65;;;59.00;;
47167;SDS011;32931;47.778;17.806;2023-01-16T17:26:41;262.05;;;116.07;;
47167;SDS011;32931;47.778;17.806;2023-01-16T17:29:07;199.98;;;88.22;;
47167;SDS011;32931;47.778;17.806;2023-01-16T17:31:35;99.28;;;63.03;;
47167;SDS011;32931;47.778;17.806;2023-01-16T17:34:04;84.25;;;50.67;;
47167;SDS011;32931;47.778;17.806;2023-01-16T17:36:30;46.55;;;31.73;;
47167;SDS011;32931;47.778;17.806;2023-01-16T17:38:57;40.45;;;27.27;;
47167;SDS011;32931;47.778;17.806;2023-01-16T17:41:24;30.95;;;20.75;;